Time;durP1;ratioP1;P1;durP2;ratioP2;P2;SDS_P1;SDS_P2;PMS_P1;PMS_P2;Temp;Humidity;BMP_temperature;BMP_pressure;BME280_temperature;BME280_humidity;BME280_pressure;Samples;Min_cycle;Max_cycle;Signal;HPM_P1;HPM_P2
2021/03/17 00:01:58;;;;;;;39.15;15.78;;;;;;;1.30;86.47;98349.62;1708214;84;21046;-68
2021/03/17 00:04:44;;;;;;;28.17;13.53;;;;;;;1.32;86.76;98346.08;1739266;82;21120;-68
2021/03/17 00:07:30;;;;;;;37.98;14.68;;;;;;;1.32;86.38;98353.66;1708160;84;21196;-67
2021/03/17 00:10:21;;;;;;;33.73;15.93;;;;;;;1.30;86.10;98349.07;1739202;82;21551;-67
2021/03/17 00:13:07;;;;;;;32.42;14.83;;;;;;;1.29;86.13;98350.70;1707999;84;21227;-67
2021/03/17 00:15:58;;;;;;;36.73;15.38;;;;;;;1.30;86.36;98347.72;1738893;81;21691;-68
2021/03/17 00:18:46;;;;;;;35.17;16.55;;;;;;;1.30;86.13;98342.86;1735280;82;21120;-68
2021/03/17 00:21:32;;;;;;;28.30;14.28;;;;;;;1.29;86.30;98344.75;1737314;82;21160;-69
2021/03/17 00:24:18;;;;;;;37.35;17.10;;;;;;;1.33;86.46;98335.53;1707897;84;21406;-69
2021/03/17 00:27:06;;;;;;;29.42;16.75;;;;;;;1.36;86.37;98339.02;1738542;82;21833;-69
2021/03/17 00:29:52;;;;;;;27.65;16.10;;;;;;;1.33;86.15;98341.74;1737204;82;21144;-68
2021/03/17 00:32:39;;;;;;;42.40;20.32;;;;;;;1.32;86.22;98345.54;1707855;84;21145;-68
2021/03/17 00:35:27;;;;;;;41.37;19.95;;;;;;;1.32;86.13;98344.73;1738577;82;21159;-68
2021/03/17 00:38:13;;;;;;;43.10;20.72;;;;;;;1.32;86.26;98342.03;1737421;82;23587;-69
2021/03/17 00:41:00;;;;;;;49.55;22.65;;;;;;;1.34;86.25;98347.95;1707699;84;21271;-68
2021/03/17 00:43:46;;;;;;;45.45;22.17;;;;;;;1.35;86.11;98348.77;1738612;82;21136;-67
2021/03/17 00:46:32;;;;;;;41.18;20.20;;;;;;;1.32;85.92;98349.59;1737315;82;21072;-68
2021/03/17 00:49:02;;;;;;;39.58;21.97;;;;;;;1.31;86.12;98356.64;1707084;84;21203;-69
2021/03/17 00:51:30;;;;;;;49.05;23.32;;;;;;;1.32;86.21;98348.24;1738695;82;22870;-68
2021/03/17 00:54:16;;;;;;;42.48;22.80;;;;;;;1.37;86.27;98345.23;1737252;82;21144;-68
2021/03/17 00:56:48;;;;;;;35.78;22.15;;;;;;;1.41;86.50;98344.92;1735279;82;21096;-68
2021/03/17 00:59:16;;;;;;;40.58;22.65;;;;;;;1.42;86.32;98341.94;1737263;82;21131;-68
2021/03/17 01:01:44;;;;;;;42.48;24.72;;;;;;;1.43;86.10;98331.92;1707824;84;21136;-68
2021/03/17 01:04:14;;;;;;;58.05;25.77;;;;;;;1.43;85.92;98333.28;1738607;82;21028;-68
2021/03/17 01:06:42;;;;;;;46.63;24.25;;;;;;;1.42;85.79;98331.12;1737363;82;21928;-67
2021/03/17 01:09:10;;;;;;;46.90;23.42;;;;;;;1.42;85.79;98327.61;1707732;84;21162;-68
2021/03/17 01:11:37;;;;;;;41.92;24.65;;;;;;;1.41;85.55;98327.34;1707837;84;21652;-68
2021/03/17 01:14:06;;;;;;;59.48;27.00;;;;;;;1.38;85.43;98330.08;1738625;82;21123;-68
2021/03/17 01:16:33;;;;;;;49.88;26.48;;;;;;;1.38;85.41;98327.91;1736874;81;21521;-69
2021/03/17 01:19:01;;;;;;;48.75;26.73;;;;;;;1.40;85.71;98328.44;1737233;82;21630;-68
2021/03/17 01:21:30;;;;;;;52.67;25.92;;;;;;;1.40;85.43;98329.79;1737529;82;21599;-69
2021/03/17 01:23:57;;;;;;;57.58;27.42;;;;;;;1.40;85.24;98327.89;1737346;82;21062;-68
2021/03/17 01:26:25;;;;;;;52.35;26.17;;;;;;;1.39;85.07;98330.88;1737573;82;21165;-67
2021/03/17 01:28:54;;;;;;;55.48;29.60;;;;;;;1.40;85.05;98327.09;1737453;82;21264;-67
2021/03/17 01:31:21;;;;;;;61.18;29.20;;;;;;;1.38;84.79;98324.66;1737345;82;21196;-67
2021/03/17 01:33:49;;;;;;;46.25;26.75;;;;;;;1.36;84.86;98323.34;1737488;82;21149;-68
2021/03/17 01:36:17;;;;;;;53.45;27.62;;;;;;;1.32;84.69;98322.55;1737377;82;21918;-68
2021/03/17 01:38:45;;;;;;;56.25;28.00;;;;;;;1.31;84.61;98325.55;1737449;82;21137;-68
2021/03/17 01:41:13;;;;;;;59.42;27.13;;;;;;;1.27;84.66;98323.95;1737936;82;21375;-68
2021/03/17 01:43:43;;;;;;;53.33;28.65;;;;;;;1.24;84.79;98325.88;1738229;82;21167;-69
2021/03/17 01:46:11;;;;;;;54.93;29.00;;;;;;;1.23;84.92;98322.11;1738395;82;21025;-70
2021/03/17 01:48:40;;;;;;;50.95;25.90;;;;;;;1.23;85.08;98328.31;1738355;82;21041;-69
2021/03/17 01:51:08;;;;;;;55.33;27.25;;;;;;;1.26;85.49;98324.23;1738118;82;21167;-69
2021/03/17 01:53:37;;;;;;;62.08;29.27;;;;;;;1.28;85.24;98321.52;1738400;82;21205;-70
2021/03/17 01:56:06;;;;;;;50.90;30.05;;;;;;;1.30;85.30;98317.98;1711931;82;47832;-69
2021/03/17 01:58:35;;;;;;;56.65;27.50;;;;;;;1.31;85.14;98320.94;1738719;82;21029;-69
2021/03/17 02:01:04;;;;;;;51.88;27.13;;;;;;;1.30;85.08;98316.63;1738668;82;21147;-69
2021/03/17 02:03:32;;;;;;;57.13;27.40;;;;;;;1.30;85.12;98322.03;1738781;82;21587;-68
2021/03/17 02:05:59;;;;;;;65.52;29.52;;;;;;;1.30;85.14;98324.73;1738637;82;21644;-68
2021/03/17 02:08:34;;;;;;;51.58;27.52;;;;;;;1.29;85.08;98325.83;1738573;82;20950;-69
2021/03/17 02:11:02;;;;;;;56.80;28.32;;;;;;;1.30;85.27;98323.93;1738702;82;21044;-69
2021/03/17 02:14:07;;;;;;;51.77;24.85;;;;;;;1.31;85.40;98325.00;1738632;82;21012;-69
2021/03/17 02:17:00;;;;;;;47.60;24.82;;;;;;;1.29;85.09;98315.56;1703091;82;21062;-69
2021/03/17 02:19:53;;;;;;;37.78;22.98;;;;;;;1.27;84.88;98306.92;1738699;82;21389;-69
2021/03/17 02:22:30;;;;;;;49.20;23.90;;;;;;;1.24;84.75;98308.84;1738738;82;22000;-67
2021/03/17 02:25:36;;;;;;;49.30;25.23;;;;;;;1.22;84.94;98311.03;1738738;82;21084;-67
2021/03/17 02:28:24;;;;;;;49.40;21.33;;;;;;;1.21;84.92;98309.42;1738682;82;20957;-66
2021/03/17 02:31:37;;;;;;;45.17;23.42;;;;;;;1.18;84.92;98309.98;1738672;82;21127;-67
2021/03/17 02:34:11;;;;;;;50.03;22.15;;;;;;;1.15;85.08;98311.94;1738660;82;23537;-67
2021/03/17 02:36:57;;;;;;;41.05;22.50;;;;;;;1.14;85.25;98309.77;1738614;82;21520;-67
2021/03/17 02:39:38;;;;;;;53.63;22.15;;;;;;;1.13;85.20;98299.25;1737041;82;21612;-67
2021/03/17 02:42:20;;;;;;;45.90;23.18;;;;;;;1.13;85.17;98298.70;1763761;81;21502;-67
2021/03/17 02:44:55;;;;;;;36.93;21.75;;;;;;;1.11;85.33;98298.73;1763905;80;21502;-67
2021/03/17 02:47:23;;;;;;;41.08;19.98;;;;;;;1.10;85.22;98295.77;1740962;81;22366;-67
2021/03/17 02:49:50;;;;;;;36.75;19.48;;;;;;;1.10;84.96;98303.87;1763616;81;21042;-67
2021/03/17 02:52:18;;;;;;;42.10;19.62;;;;;;;1.09;85.10;98300.91;1763812;81;21609;-67
2021/03/17 02:54:47;;;;;;;36.73;19.85;;;;;;;1.11;85.11;98300.88;1763698;81;21074;-67
2021/03/17 02:57:21;;;;;;;32.63;18.25;;;;;;;1.14;85.18;98307.08;1763855;81;21063;-67
2021/03/17 02:59:51;;;;;;;43.05;19.80;;;;;;;1.16;85.10;98304.05;1763899;81;21339;-68
2021/03/17 03:02:21;;;;;;;33.50;19.15;;;;;;;1.18;84.91;98307.28;1761829;81;21112;-69
2021/03/17 03:04:50;;;;;;;32.08;16.80;;;;;;;1.15;84.91;98305.98;1763403;80;21437;-68
2021/03/17 03:07:18;;;;;;;31.52;18.70;;;;;;;1.14;84.82;98305.72;1763413;81;21975;-67
2021/03/17 03:09:46;;;;;;;40.40;18.23;;;;;;;1.15;84.87;98311.94;1763406;80;21136;-68
2021/03/17 03:12:14;;;;;;;37.05;17.82;;;;;;;1.13;84.67;98314.92;1763581;81;21370;-68
2021/03/17 03:14:42;;;;;;;41.10;18.32;;;;;;;1.13;84.85;98307.36;1761696;81;21037;-68
2021/03/17 03:17:10;;;;;;;41.92;17.32;;;;;;;1.15;85.09;98306.53;1761610;81;21600;-68
2021/03/17 03:19:41;;;;;;;38.83;17.10;;;;;;;1.15;85.00;98307.34;1761897;81;21073;-68
2021/03/17 03:22:10;;;;;;;35.92;17.17;;;;;;;1.16;84.88;98310.27;1762741;81;21592;-68
2021/03/17 03:24:37;;;;;;;29.55;17.17;;;;;;;1.14;84.74;98308.42;1763396;81;21208;-68
2021/03/17 03:27:06;;;;;;;38.85;17.27;;;;;;;1.12;84.96;98313.31;1698788;84;20964;-68
2021/03/17 03:29:34;;;;;;;27.37;14.73;;;;;;;1.12;85.02;98311.15;1711148;83;21029;-68
2021/03/17 03:32:05;;;;;;;35.17;15.55;;;;;;;1.13;84.98;98316.27;1729405;83;21018;-68
2021/03/17 03:34:33;;;;;;;32.00;16.23;;;;;;;1.12;84.82;98317.36;1729582;83;21019;-67
2021/03/17 03:37:01;;;;;;;27.02;14.98;;;;;;;1.10;84.92;98310.08;1729862;83;21259;-67
2021/03/17 03:39:29;;;;;;;30.27;14.53;;;;;;;1.10;84.98;98313.33;1729755;83;21110;-67
2021/03/17 03:41:56;;;;;;;29.98;15.08;;;;;;;1.10;84.95;98313.33;1740099;81;21508;-67
2021/03/17 03:44:24;;;;;;;29.65;14.98;;;;;;;1.09;84.76;98304.96;1740233;82;21161;-67
2021/03/17 03:46:53;;;;;;;31.40;15.20;;;;;;;1.10;84.93;98310.08;1740356;82;21554;-67
2021/03/17 03:49:22;;;;;;;29.50;15.43;;;;;;;1.13;85.07;98308.16;1740372;82;22087;-67
2021/03/17 03:52:04;;;;;;;33.63;14.10;;;;;;;1.13;84.80;98308.16;1740297;82;21177;-67
2021/03/17 03:54:39;;;;;;;42.27;16.10;;;;;;;1.13;84.77;98304.66;1740444;82;20999;-68
2021/03/17 03:57:14;;;;;;;31.48;16.25;;;;;;;1.13;84.77;98304.66;1711357;82;21486;-68
2021/03/17 03:59:45;;;;;;;35.78;15.72;;;;;;;1.13;85.00;98311.41;1759804;81;21148;-68
2021/03/17 04:02:27;;;;;;;30.68;15.40;;;;;;;1.13;84.98;98306.00;1727257;81;21388;-69
2021/03/17 04:04:56;;;;;;;31.65;15.23;;;;;;;1.14;84.84;98299.52;1755469;81;21477;-68
2021/03/17 04:07:24;;;;;;;34.90;14.10;;;;;;;1.12;84.65;98308.45;1742178;81;20914;-69
2021/03/17 04:09:53;;;;;;;26.42;14.58;;;;;;;1.14;84.76;98307.62;1738476;82;21168;-70
2021/03/17 04:12:22;;;;;;;31.75;14.47;;;;;;;1.14;84.56;98309.77;1739344;82;21156;-69
2021/03/17 04:14:51;;;;;;;32.05;14.38;;;;;;;1.13;84.44;98306.00;1739631;82;21513;-69
2021/03/17 04:17:45;;;;;;;35.65;15.95;;;;;;;1.13;84.53;98308.16;1739441;82;21102;-69
2021/03/17 04:20:18;;;;;;;28.83;14.18;;;;;;;1.13;84.75;98306.00;1740943;81;20946;-69
2021/03/17 04:22:45;;;;;;;26.27;14.18;;;;;;;1.13;84.37;98305.46;1740313;81;21100;-69
2021/03/17 04:25:14;;;;;;;27.70;14.23;;;;;;;1.14;84.31;98315.73;1740404;82;21162;-70
2021/03/17 04:27:46;;;;;;;26.90;14.45;;;;;;;1.13;84.13;98306.81;1740217;82;21374;-70
2021/03/17 04:30:15;;;;;;;;;;;;;;;1.13;84.12;98306.00;1742855;82;20949;-69
2021/03/17 04:32:46;;;;;;;35.03;17.02;;;;;;;1.13;84.07;98300.59;1740340;82;20497;-69
2021/03/17 04:35:16;;;;;;;29.42;14.00;;;;;;;1.14;84.08;98297.61;1740453;82;21057;-69
2021/03/17 04:37:46;;;;;;;31.93;15.53;;;;;;;1.15;84.00;98291.12;1740274;82;21123;-70
2021/03/17 04:40:14;;;;;;;32.58;14.15;;;;;;;1.18;83.73;98292.41;1740542;82;21378;-70
2021/03/17 04:42:43;;;;;;;34.00;14.35;;;;;;;1.18;83.87;98288.36;1743923;82;21838;-69
2021/03/17 04:45:13;;;;;;;29.02;13.90;;;;;;;1.18;83.64;98289.16;1744025;81;21580;-68
2021/03/17 04:47:42;;;;;;;31.05;14.85;;;;;;;1.20;83.58;98298.34;1743972;82;21642;-70
2021/03/17 04:50:16;;;;;;;25.57;14.98;;;;;;;1.22;83.44;98294.81;1744001;82;21060;-68
2021/03/17 04:52:44;;;;;;;30.35;14.73;;;;;;;1.23;83.38;98294.52;1743994;82;21391;-69
2021/03/17 04:55:14;;;;;;;28.47;13.88;;;;;;;1.24;82.95;98284.52;1743944;82;21104;-69
2021/03/17 04:57:43;;;;;;;34.48;14.63;;;;;;;1.22;82.74;98283.45;1743957;82;21126;-71
2021/03/17 05:00:14;;;;;;;27.45;14.10;;;;;;;1.24;82.83;98279.11;1744048;82;21595;-71
2021/03/17 05:02:47;;;;;;;29.63;13.83;;;;;;;1.27;83.02;98283.95;1744000;82;21001;-70
2021/03/17 05:05:15;;;;;;;28.00;13.88;;;;;;;1.29;82.86;98282.57;1743955;82;21350;-69
2021/03/17 05:07:43;;;;;;;25.75;13.68;;;;;;;1.28;82.25;98286.36;1743926;82;21032;-69
2021/03/17 05:10:11;;;;;;;27.15;14.20;;;;;;;1.27;82.19;98283.95;1743952;82;21060;-68
2021/03/17 05:12:39;;;;;;;29.77;14.05;;;;;;;1.27;82.15;98286.65;1743964;82;20945;-68
2021/03/17 05:15:08;;;;;;;23.62;13.03;;;;;;;1.27;82.17;98281.24;1743990;82;20930;-69
2021/03/17 05:17:38;;;;;;;27.87;13.58;;;;;;;1.25;82.05;98286.13;1742389;82;22771;-71
2021/03/17 05:20:09;;;;;;;29.37;13.38;;;;;;;1.24;82.07;98285.33;1731236;82;21239;-68
2021/03/17 05:22:36;;;;;;;24.63;13.78;;;;;;;1.26;82.24;98288.55;1714397;82;21732;-66
2021/03/17 05:25:06;;;;;;;30.35;14.98;;;;;;;1.28;82.45;98280.16;1742652;82;21139;-69
2021/03/17 05:27:35;;;;;;;34.83;15.35;;;;;;;1.28;82.00;98282.86;1727735;82;21140;-69
2021/03/17 05:30:09;;;;;;;31.75;16.27;;;;;;;1.25;81.73;98285.58;1716857;82;21925;-70
2021/03/17 05:32:37;;;;;;;35.75;13.80;;;;;;;1.25;82.22;98285.58;1743960;82;21052;-68
2021/03/17 05:35:10;;;;;;;34.27;16.50;;;;;;;1.28;82.13;98291.77;1718747;82;21088;-69
2021/03/17 05:37:38;;;;;;;;;;;;;;;1.30;81.90;98294.19;1746531;82;20902;-68
2021/03/17 05:40:09;;;;;;;27.32;16.12;;;;;;;1.31;81.64;98293.09;1743912;82;20222;-69
2021/03/17 05:42:38;;;;;;;42.08;16.45;;;;;;;1.29;82.06;98297.44;1742438;82;22319;-69
2021/03/17 05:45:12;;;;;;;31.52;15.28;;;;;;;1.31;81.82;98301.20;1742924;80;21209;-69
2021/03/17 05:47:45;;;;;;;36.00;16.55;;;;;;;1.33;81.97;98300.38;1742380;82;20957;-70
2021/03/17 05:50:15;;;;;;;30.77;15.55;;;;;;;1.39;81.91;98299.78;1742374;82;21100;-73
2021/03/17 05:52:43;;;;;;;28.25;15.05;;;;;;;1.41;81.97;98305.71;1742488;82;21543;-72
2021/03/17 05:55:13;;;;;;;39.30;17.52;;;;;;;1.44;81.92;98298.38;1742985;82;21607;-71
2021/03/17 05:57:41;;;;;;;29.18;16.48;;;;;;;1.46;81.52;98300.25;1743740;82;21033;-71
2021/03/17 06:00:13;;;;;;;38.30;18.27;;;;;;;1.46;81.40;98303.77;1744057;82;21540;-70
2021/03/17 06:02:41;;;;;;;34.80;17.32;;;;;;;1.47;81.48;98304.02;1742762;82;21162;-70
2021/03/17 06:05:11;;;;;;;28.35;15.95;;;;;;;1.51;81.72;98302.91;1743927;82;21076;-70
2021/03/17 06:07:44;;;;;;;29.30;15.03;;;;;;;1.55;81.59;98303.94;1743931;82;21267;-70
2021/03/17 06:10:14;;;;;;;28.95;15.05;;;;;;;1.55;81.37;98303.40;1742496;82;21000;-70
2021/03/17 06:12:41;;;;;;;29.75;15.60;;;;;;;1.58;81.07;98308.78;1743226;82;21135;-78
2021/03/17 06:15:10;;;;;;;30.50;14.87;;;;;;;1.60;81.44;98305.24;1742991;82;21187;-72
2021/03/17 06:17:38;;;;;;;31.60;14.75;;;;;;;1.65;81.34;98304.64;1743228;82;21125;-73
2021/03/17 06:20:08;;;;;;;37.25;15.38;;;;;;;1.70;81.11;98304.33;1718762;82;21107;-73
2021/03/17 06:22:36;;;;;;;28.47;15.88;;;;;;;1.73;80.90;98303.20;1743765;82;21148;-71
2021/03/17 06:25:05;;;;;;;38.60;16.30;;;;;;;1.75;81.02;98306.40;1743511;82;21120;-69
2021/03/17 06:27:39;;;;;;;32.83;14.63;;;;;;;1.77;81.10;98300.70;1743297;82;21199;-73
2021/03/17 06:30:08;;;;;;;29.42;14.55;;;;;;;1.80;80.66;98308.23;1743783;82;21084;-71
2021/03/17 06:32:35;;;;;;;33.38;14.45;;;;;;;1.83;80.45;98309.82;1744077;82;21385;-70
2021/03/17 06:35:22;;;;;;;33.60;13.80;;;;;;;1.85;79.94;98312.23;1743698;82;21250;-72
2021/03/17 06:37:52;;;;;;;31.25;14.40;;;;;;;1.84;79.79;98307.92;1737956;82;21192;-71
2021/03/17 06:40:32;;;;;;;30.82;15.93;;;;;;;1.82;79.94;98305.50;1735436;82;20946;-73
2021/03/17 06:43:09;;;;;;;24.15;13.18;;;;;;;1.85;79.97;98310.34;1743699;82;21077;-70
2021/03/17 06:45:47;;;;;;;33.58;14.75;;;;;;;1.88;79.90;98314.37;1742728;82;21591;-69
2021/03/17 06:48:28;;;;;;;24.92;12.00;;;;;;;1.89;79.58;98313.27;1743399;82;20974;-70
2021/03/17 06:51:19;;;;;;;28.00;12.63;;;;;;;1.91;79.56;98317.85;1743521;82;21093;-75
2021/03/17 06:53:49;;;;;;;;;;;;;;;1.91;79.44;98319.20;1745981;82;21097;-71
2021/03/17 06:56:32;;;;;;;26.57;13.35;;;;;;;1.90;79.48;98315.69;1717885;82;20218;-70
2021/03/17 06:59:08;;;;;;;27.80;13.30;;;;;;;1.91;79.43;98320.02;1743493;82;21458;-70
2021/03/17 07:04:25;;;;;;;22.87;13.98;;;;;;;1.99;79.20;98318.02;1888600;76;22591;-72
2021/03/17 07:07:02;;;;;;;29.82;15.45;;;;;;;1.98;79.34;98315.60;1775423;80;20895;-71
2021/03/17 07:09:31;;;;;;;41.83;15.93;;;;;;;2.04;79.22;98314.45;1807200;79;21559;-70
2021/03/17 07:12:13;;;;;;;32.35;14.03;;;;;;;2.08;78.79;98306.55;1849829;77;20938;-75
2021/03/17 07:14:42;;;;;;;31.73;14.75;;;;;;;2.11;78.89;98310.03;1775467;80;21112;-81
2021/03/17 07:17:26;;;;;;;34.23;13.45;;;;;;;2.16;78.92;98314.83;1774004;81;20931;-74
2021/03/17 07:19:54;;;;;;;26.80;14.10;;;;;;;2.21;78.78;98309.35;1775505;80;20947;-75
2021/03/17 07:22:22;;;;;;;34.63;14.93;;;;;;;2.26;78.27;98310.64;1807204;79;21586;-76
2021/03/17 07:25:00;;;;;;;29.55;15.13;;;;;;;2.30;78.07;98312.22;1794257;77;20903;-75
2021/03/17 07:27:30;;;;;;;34.35;16.15;;;;;;;2.34;77.72;98314.57;1818687;77;21492;-74
2021/03/17 07:30:07;;;;;;;31.73;16.90;;;;;;;2.35;77.44;98311.31;1849887;77;21136;-77
2021/03/17 07:32:59;;;;;;;27.93;15.80;;;;;;;2.38;77.41;98312.89;1849701;77;21535;-70
2021/03/17 07:35:31;;;;;;;37.90;15.38;;;;;;;2.43;77.23;98315.53;1849883;77;21335;-72
2021/03/17 07:38:09;;;;;;;29.70;13.72;;;;;;;2.49;77.11;98314.91;1849685;77;20977;-72
2021/03/17 07:40:44;;;;;;;31.30;14.80;;;;;;;2.54;77.11;98312.94;1849942;77;20990;-74
2021/03/17 07:43:14;;;;;;;37.95;16.07;;;;;;;2.58;76.61;98316.66;1848834;77;20982;-77
2021/03/17 07:45:42;;;;;;;27.02;14.60;;;;;;;2.60;76.52;98314.47;1849138;76;21497;-77
2021/03/17 07:48:11;;;;;;;29.75;15.08;;;;;;;2.63;76.50;98319.30;1849955;77;21828;-74
2021/03/17 07:50:41;;;;;;;25.45;14.30;;;;;;;2.67;76.28;98309.23;1849856;77;20945;-74
2021/03/17 07:53:25;;;;;;;34.25;15.20;;;;;;;2.72;76.24;98313.22;1849899;77;20941;-80
2021/03/17 07:55:56;;;;;;;24.35;14.18;;;;;;;2.74;75.71;98313.19;1849938;77;21029;-74
2021/03/17 07:58:24;;;;;;;28.10;14.75;;;;;;;2.79;75.75;98313.66;1849896;77;21185;-74
2021/03/17 08:00:51;;;;;;;36.25;15.45;;;;;;;2.83;76.02;98310.61;1849382;77;21356;-77
2021/03/17 08:03:20;;;;;;;32.33;14.30;;;;;;;2.88;76.08;98312.70;1778563;78;21077;-74
2021/03/17 08:05:47;;;;;;;28.45;15.28;;;;;;;2.94;75.10;98309.32;1824243;77;20997;-77
2021/03/17 08:08:16;;;;;;;32.70;14.55;;;;;;;2.95;74.81;98302.25;1797097;79;21126;-88
2021/03/17 08:10:45;;;;;;;29.32;14.95;;;;;;;2.97;74.83;98299.24;1785914;80;21029;-73
2021/03/17 08:13:13;;;;;;;31.07;14.63;;;;;;;3.00;74.34;98295.94;1778489;80;22264;-86
2021/03/17 08:15:45;;;;;;;33.50;15.68;;;;;;;3.02;74.16;98296.45;1809802;79;21038;-80
2021/03/17 08:18:37;;;;;;;28.85;14.90;;;;;;;3.04;74.10;98289.38;1782837;79;20931;-82
2021/03/17 08:21:05;;;;;;;44.20;15.58;;;;;;;3.09;73.91;98290.64;1807556;79;21070;-78
2021/03/17 08:23:48;;;;;;;30.62;15.45;;;;;;;3.09;73.96;98292.80;1807334;79;21089;-70
2021/03/17 08:26:30;;;;;;;34.50;15.48;;;;;;;3.12;74.09;98293.56;1807422;79;21357;-74
2021/03/17 08:28:58;;;;;;;42.65;18.05;;;;;;;3.15;74.08;98288.91;1807492;79;28570;-68
2021/03/17 08:31:43;;;;;;;41.77;18.90;;;;;;;3.19;74.10;98290.47;1802309;79;21026;-71
2021/03/17 08:34:23;;;;;;;38.85;19.65;;;;;;;3.21;74.02;98293.69;1797560;79;20918;-69
2021/03/17 08:37:04;;;;;;;35.38;19.52;;;;;;;3.23;73.54;98294.20;1787465;80;21072;-74
2021/03/17 08:39:42;;;;;;;36.23;17.12;;;;;;;3.21;73.48;98290.98;1776130;80;21368;-70
2021/03/17 08:42:30;;;;;;;37.73;18.32;;;;;;;3.15;73.13;98287.55;1809461;79;21584;-71
2021/03/17 08:45:16;;;;;;;35.03;17.65;;;;;;;3.12;73.50;98290.05;1787379;80;20982;-77
2021/03/17 08:47:45;;;;;;;40.05;17.73;;;;;;;3.15;73.70;98292.97;1750785;80;20939;-72
2021/03/17 08:50:24;;;;;;;31.20;17.10;;;;;;;3.20;73.87;98286.11;1795719;79;21589;-70
2021/03/17 08:52:53;;;;;;;33.25;17.17;;;;;;;3.29;74.00;98291.09;1770654;80;22274;-71
2021/03/17 08:55:39;;;;;;;34.13;17.23;;;;;;;3.42;73.81;98293.59;1787661;79;20992;-72
2021/03/17 08:58:19;;;;;;;50.08;16.57;;;;;;;3.49;73.44;98298.03;1783754;79;20976;-71
2021/03/17 09:00:56;;;;;;;36.98;17.10;;;;;;;3.57;73.11;98292.47;1787999;79;21114;-72
2021/03/17 09:03:39;;;;;;;29.37;15.10;;;;;;;3.63;72.76;98294.79;1757902;80;21515;-72
2021/03/17 09:06:25;;;;;;;31.95;16.60;;;;;;;3.65;71.91;98297.20;1747742;82;22274;-74
2021/03/17 09:08:56;;;;;;;31.62;14.93;;;;;;;3.64;71.83;98302.37;1754130;81;20959;-72
2021/03/17 09:11:36;;;;;;;36.90;15.23;;;;;;;3.66;71.90;98301.52;1752524;81;21249;-72
2021/03/17 09:14:06;;;;;;;32.83;14.28;;;;;;;3.70;71.46;98301.17;1747201;82;20981;-72
2021/03/17 09:16:35;;;;;;;26.25;13.50;;;;;;;3.72;71.58;98295.45;1769884;80;20953;-73
2021/03/17 09:19:11;;;;;;;35.50;16.00;;;;;;;3.77;71.45;98301.58;1745822;81;21202;-73
2021/03/17 09:21:44;;;;;;;30.52;15.03;;;;;;;3.84;70.77;98299.83;1772545;80;21052;-72
2021/03/17 09:24:34;;;;;;;33.53;16.15;;;;;;;3.89;71.23;98297.02;1764808;80;21052;-73
2021/03/17 09:27:04;;;;;;;32.55;16.30;;;;;;;3.94;71.14;98305.05;1768846;80;21096;-72
2021/03/17 09:29:33;;;;;;;28.57;14.13;;;;;;;4.03;70.40;98305.16;1765804;80;21040;-77
2021/03/17 09:32:00;;;;;;;30.90;14.33;;;;;;;4.04;70.12;98299.42;1768790;80;21532;-71
2021/03/17 09:34:34;;;;;;;38.48;14.78;;;;;;;4.08;70.27;98305.83;1766693;80;20902;-70
2021/03/17 09:37:10;;;;;;;30.32;14.20;;;;;;;4.10;69.90;98306.33;1743975;81;20981;-70
2021/03/17 09:39:40;;;;;;;35.85;17.17;;;;;;;4.10;69.90;98300.09;1738809;81;21018;-74
2021/03/17 09:42:17;;;;;;;31.45;15.53;;;;;;;4.12;69.80;98306.83;1726622;82;21151;-73
2021/03/17 09:44:44;;;;;;;32.20;14.47;;;;;;;4.17;70.02;98308.63;1752029;82;22291;-82
2021/03/17 09:47:12;;;;;;;31.20;14.90;;;;;;;4.22;69.60;98306.61;1751338;81;21187;-83
2021/03/17 09:49:40;;;;;;;33.75;14.15;;;;;;;4.37;68.81;98306.04;1750992;82;21024;-72
2021/03/17 09:52:07;;;;;;;26.90;14.35;;;;;;;4.41;69.23;98301.60;1751433;82;20977;-72
2021/03/17 09:54:35;;;;;;;26.00;12.85;;;;;;;4.41;69.23;98301.60;1751983;82;20977;-72
2021/03/17 09:57:06;;;;;;;25.17;14.28;;;;;;;4.51;68.32;98300.83;1751978;82;21197;-72
2021/03/17 09:59:44;;;;;;;30.40;15.13;;;;;;;4.58;67.70;98307.20;1765625;80;21544;-73
2021/03/17 10:05:03;;;;;;;31.37;14.93;;;;;;;4.69;67.22;98303.66;1873751;75;23249;-72
2021/03/17 10:07:34;;;;;;;29.00;13.95;;;;;;;4.66;67.03;98303.72;1841652;78;21059;-71
2021/03/17 10:10:06;;;;;;;29.12;14.73;;;;;;;4.69;66.88;98315.34;1841831;78;21352;-72
2021/03/17 10:12:33;;;;;;;28.95;14.35;;;;;;;4.69;66.30;98305.02;1841621;78;20952;-71
2021/03/17 10:15:08;;;;;;;32.70;15.60;;;;;;;4.65;66.89;98304.28;1810108;78;20931;-72
2021/03/17 10:17:36;;;;;;;28.60;14.75;;;;;;;4.66;66.78;98298.28;1758212;81;21018;-72
2021/03/17 10:20:12;;;;;;;30.50;14.33;;;;;;;4.68;66.88;98303.42;1780721;80;21007;-72
2021/03/17 10:22:40;;;;;;;31.42;14.15;;;;;;;4.69;66.54;98309.10;1763538;80;21193;-70
2021/03/17 10:25:12;;;;;;;31.33;15.48;;;;;;;4.73;66.90;98304.66;1751522;80;21032;-70
2021/03/17 10:27:44;;;;;;;23.92;14.28;;;;;;;4.78;66.51;98299.91;1781591;79;21009;-73
2021/03/17 10:30:28;;;;;;;31.52;15.35;;;;;;;4.85;66.50;98297.56;1778091;79;21564;-72
2021/03/17 10:33:00;;;;;;;25.72;14.43;;;;;;;4.93;66.87;98287.31;1782065;79;21120;-70
2021/03/17 10:35:26;;;;;;;37.38;14.83;;;;;;;5.05;66.38;98293.55;1772137;79;21431;-71
2021/03/17 10:37:58;;;;;;;28.62;13.88;;;;;;;5.12;66.82;98289.84;1772651;80;21004;-72
2021/03/17 10:40:26;;;;;;;34.50;15.45;;;;;;;5.26;64.60;98289.18;1760823;80;21128;-72
2021/03/17 10:42:59;;;;;;;31.37;14.50;;;;;;;5.26;64.60;98289.18;1756372;80;21187;-69
2021/03/17 10:45:32;;;;;;;43.35;16.17;;;;;;;5.23;65.09;98289.00;1747985;82;21182;-69
2021/03/17 10:48:12;;;;;;;29.37;14.47;;;;;;;5.19;64.84;98298.38;1745668;82;22236;-69
2021/03/17 10:50:42;;;;;;;26.33;14.20;;;;;;;5.14;64.89;98301.22;1747010;81;21016;-68
2021/03/17 10:53:28;;;;;;;31.55;15.98;;;;;;;5.08;65.24;98295.66;1747548;80;21158;-69
2021/03/17 10:55:58;;;;;;;35.50;16.30;;;;;;;5.07;65.83;98304.13;1756720;80;21176;-69
2021/03/17 10:58:28;;;;;;;31.55;14.98;;;;;;;5.05;65.43;98301.71;1754712;80;21190;-69
2021/03/17 11:01:00;;;;;;;33.00;13.95;;;;;;;5.01;65.68;98303.44;1777897;80;21366;-70
2021/03/17 11:03:32;;;;;;;26.80;13.93;;;;;;;4.97;65.80;98301.09;1759253;81;21163;-81
2021/03/17 11:06:20;;;;;;;30.80;14.85;;;;;;;4.95;65.81;98296.52;1797140;79;21183;-77
2021/03/17 11:09:07;;;;;;;22.90;12.75;;;;;;;4.92;65.75;98297.14;1765920;81;21147;-76
2021/03/17 11:11:52;;;;;;;29.37;14.00;;;;;;;4.89;65.67;98298.55;1797388;79;21158;-75
2021/03/17 11:14:36;;;;;;;29.85;14.10;;;;;;;4.83;65.75;98301.15;1797034;79;22160;-75
2021/03/17 11:17:09;;;;;;;31.87;13.98;;;;;;;4.75;66.50;98297.00;1765345;81;21073;-75
2021/03/17 11:19:38;;;;;;;30.35;15.10;;;;;;;4.66;66.30;98292.85;1796822;79;21528;-74
2021/03/17 11:22:05;;;;;;;36.42;16.32;;;;;;;4.61;66.80;98289.72;1796595;79;21128;-75
2021/03/17 11:24:33;;;;;;;34.58;14.83;;;;;;;4.60;67.21;98290.84;1765267;81;21113;-75
2021/03/17 11:27:02;;;;;;;29.72;14.90;;;;;;;4.60;68.06;98291.39;1831097;78;21290;-75
2021/03/17 11:29:31;;;;;;;33.78;15.18;;;;;;;4.62;67.22;98293.25;1830879;78;21189;-74
2021/03/17 11:32:10;;;;;;;37.25;15.78;;;;;;;4.59;67.13;98296.02;1788994;79;21166;-73
2021/03/17 11:34:38;;;;;;;32.78;15.85;;;;;;;4.58;67.36;98294.41;1767527;80;21157;-73
2021/03/17 11:37:06;;;;;;;35.23;15.68;;;;;;;4.54;67.24;98293.97;1767203;79;21560;-73
2021/03/17 11:39:35;;;;;;;37.15;15.40;;;;;;;4.49;67.05;98298.97;1769827;80;22530;-74
2021/03/17 11:42:04;;;;;;;35.10;15.23;;;;;;;4.47;67.20;98295.75;1784814;79;21583;-74
2021/03/17 11:44:32;;;;;;;27.65;13.48;;;;;;;4.46;67.29;98298.22;1796420;78;21192;-73
2021/03/17 11:46:59;;;;;;;32.67;14.33;;;;;;;4.47;67.76;98297.11;1789835;79;21080;-73
2021/03/17 11:49:28;;;;;;;27.10;13.38;;;;;;;4.51;67.98;98305.45;1790429;79;21187;-73
2021/03/17 11:51:55;;;;;;;30.75;15.03;;;;;;;4.54;67.38;98302.13;1788232;80;21191;-74
2021/03/17 11:54:26;;;;;;;33.53;14.78;;;;;;;4.54;67.62;98300.21;1786995;80;21199;-74
2021/03/17 11:56:54;;;;;;;24.65;12.78;;;;;;;4.52;67.61;98297.00;1787673;80;21180;-74
2021/03/17 11:59:21;;;;;;;24.57;12.33;;;;;;;4.53;67.69;98297.25;1787803;80;21632;-74
2021/03/17 12:01:49;;;;;;;30.02;12.33;;;;;;;4.54;67.77;98304.29;1787743;80;21160;-74